sensor_id;sensor_type;location;lat;lon;timestamp;pressure;altitude;pressure_sealevel;temperature;humidity
51299;BME280;37382;45.192;9.790;2023-04-23T04:04:49;100858.81;;;14.49;100.00
51299;BME280;37382;45.192;9.790;2023-04-23T04:07:18;100853.22;;;14.37;100.00
51299;BME280;37382;45.192;9.790;2023-04-23T04:09:46;100848.41;;;14.65;100.00
51299;BME280;37382;45.192;9.790;2023-04-23T04:12:15;100848.88;;;14.87;100.00
51299;BME280;37382;45.192;9.790;2023-04-23T04:14:43;100849.47;;;14.89;100.00
51299;BME280;37382;45.192;9.790;2023-04-23T04:17:10;100851.91;;;14.79;100.00
51299;BME280;37382;45.192;9.790;2023-04-23T04:19:38;100861.00;;;14.98;100.00
51299;BME280;37382;45.192;9.790;2023-04-23T04:22:05;100859.50;;;15.02;100.00
51299;BME280;37382;45.192;9.790;2023-04-23T04:24:33;100868.41;;;14.97;100.00
51299;BME280;37382;45.192;9.790;2023-04-23T04:27:01;100869.22;;;14.40;100.00
51299;BME280;37382;45.192;9.790;2023-04-23T04:29:29;100867.06;;;14.43;100.00
51299;BME280;37382;45.192;9.790;2023-04-23T04:31:57;100873.56;;;14.48;100.00
51299;BME280;37382;45.192;9.790;2023-04-23T04:34:25;100867.75;;;14.38;100.00
51299;BME280;37382;45.192;9.790;2023-04-23T04:36:53;100863.84;;;14.84;100.00
51299;BME280;37382;45.192;9.790;2023-04-23T04:39:20;100863.88;;;15.09;100.00
51299;BME280;37382;45.192;9.790;2023-04-23T04:41:48;100867.63;;;15.15;100.00
51299;BME280;37382;45.192;9.790;2023-04-23T04:44:16;100871.69;;;15.06;100.00
51299;BME280;37382;45.192;9.790;2023-04-23T04:46:44;100874.28;;;14.69;100.00
51299;BME280;37382;45.192;9.790;2023-04-23T04:49:12;100872.94;;;14.85;100.00
51299;BME280;37382;45.192;9.790;2023-04-23T04:51:39;100878.22;;;15.05;100.00
51299;BME280;37382;45.192;9.790;2023-04-23T04:54:07;100881.75;;;15.12;100.00
51299;BME280;37382;45.192;9.790;2023-04-23T04:56:36;100878.97;;;14.62;100.00
51299;BME280;37382;45.192;9.790;2023-04-23T04:59:03;100880.16;;;14.40;100.00
51299;BME280;37382;45.192;9.790;2023-04-23T05:01:32;100884.44;;;14.23;100.00
51299;BME280;37382;45.192;9.790;2023-04-23T05:03:59;100880.44;;;14.26;100.00
51299;BME280;37382;45.192;9.790;2023-04-23T05:06:27;100882.22;;;14.06;100.00
51299;BME280;37382;45.192;9.790;2023-04-23T05:08:54;100892.69;;;14.16;100.00
51299;BME280;37382;45.192;9.790;2023-04-23T05:11:23;100884.13;;;14.06;100.00
51299;BME280;37382;45.192;9.790;2023-04-23T05:13:51;100892.63;;;13.84;100.00
51299;BME280;37382;45.192;9.790;2023-04-23T05:16:19;100891.84;;;14.16;100.00
51299;BME280;37382;45.192;9.790;2023-04-23T05:18:47;100899.09;;;13.97;100.00
51299;BME280;37382;45.192;9.790;2023-04-23T05:21:14;100898.69;;;13.93;100.00
51299;BME280;37382;45.192;9.790;2023-04-23T05:23:42;100903.31;;;14.38;100.00
51299;BME280;37382;45.192;9.790;2023-04-23T05:26:10;100904.88;;;14.20;100.00
51299;BME280;37382;45.192;9.790;2023-04-23T05:28:37;100905.06;;;14.26;100.00
51299;BME280;37382;45.192;9.790;2023-04-23T05:31:05;100915.09;;;13.93;100.00
51299;BME280;37382;45.192;9.790;2023-04-23T05:33:34;100902.47;;;13.92;100.00
51299;BME280;37382;45.192;9.790;2023-04-23T05:36:17;100903.69;;;14.03;100.00
51299;BME280;37382;45.192;9.790;2023-04-23T05:38:44;100899.28;;;14.02;100.00
51299;BME280;37382;45.192;9.790;2023-04-23T05:41:12;100902.00;;;14.09;100.00
51299;BME280;37382;45.192;9.790;2023-04-23T05:43:39;100901.91;;;14.29;100.00
51299;BME280;37382;45.192;9.790;2023-04-23T05:46:07;100899.66;;;14.12;100.00
51299;BME280;37382;45.192;9.790;2023-04-23T05:48:34;100908.06;;;14.11;100.00
51299;BME280;37382;45.192;9.790;2023-04-23T05:51:02;100904.97;;;14.46;100.00
51299;BME280;37382;45.192;9.790;2023-04-23T05:53:29;100910.13;;;14.22;100.00
51299;BME280;37382;45.192;9.790;2023-04-23T05:55:57;100897.56;;;14.08;100.00
51299;BME280;37382;45.192;9.790;2023-04-23T05:58:25;100902.78;;;14.22;100.00
51299;BME280;37382;45.192;9.790;2023-04-23T06:00:53;100905.72;;;14.21;100.00
51299;BME280;37382;45.192;9.790;2023-04-23T06:03:21;100911.91;;;14.41;100.00
51299;BME280;37382;45.192;9.790;2023-04-23T06:05:49;100908.72;;;14.51;100.00
51299;BME280;37382;45.192;9.790;2023-04-23T06:08:16;100908.78;;;14.76;100.00
51299;BME280;37382;45.192;9.790;2023-04-23T06:10:46;100910.59;;;14.51;100.00
51299;BME280;37382;45.192;9.790;2023-04-23T06:13:13;100915.50;;;14.42;100.00
51299;BME280;37382;45.192;9.790;2023-04-23T06:15:42;100914.13;;;14.65;100.00
51299;BME280;37382;45.192;9.790;2023-04-23T06:18:09;100915.38;;;14.69;100.00
51299;BME280;37382;45.192;9.790;2023-04-23T06:20:36;100922.41;;;15.15;100.00
51299;BME280;37382;45.192;9.790;2023-04-23T06:23:04;100914.13;;;15.22;100.00
51299;BME280;37382;45.192;9.790;2023-04-23T06:25:32;100919.25;;;15.37;100.00
51299;BME280;37382;45.192;9.790;2023-04-23T06:28:00;100912.88;;;15.43;100.00
51299;BME280;37382;45.192;9.790;2023-04-23T06:30:33;100916.19;;;15.26;100.00
51299;BME280;37382;45.192;9.790;2023-04-23T06:33:01;100918.81;;;15.15;100.00
51299;BME280;37382;45.192;9.790;2023-04-23T06:35:29;100914.69;;;15.30;100.00
51299;BME280;37382;45.192;9.790;2023-04-23T06:37:57;100918.38;;;15.43;100.00
51299;BME280;37382;45.192;9.790;2023-04-23T06:40:24;100914.03;;;15.54;100.00
51299;BME280;37382;45.192;9.790;2023-04-23T06:42:52;100917.16;;;15.57;100.00
51299;BME280;37382;45.192;9.790;2023-04-23T06:45:34;100911.31;;;15.72;100.00
51299;BME280;37382;45.192;9.790;2023-04-23T06:48:02;100905.47;;;16.06;100.00
51299;BME280;37382;45.192;9.790;2023-04-23T06:50:30;100909.91;;;16.07;100.00
51299;BME280;37382;45.192;9.790;2023-04-23T06:52:58;100904.19;;;15.90;100.00
51299;BME280;37382;45.192;9.790;2023-04-23T06:55:25;100894.50;;;16.36;100.00
51299;BME280;37382;45.192;9.790;2023-04-23T06:57:53;100903.91;;;16.28;100.00
51299;BME280;37382;45.192;9.790;2023-04-23T07:00:22;100904.66;;;16.17;100.00
51299;BME280;37382;45.192;9.790;2023-04-23T07:02:50;100905.31;;;16.19;100.00
51299;BME280;37382;45.192;9.790;2023-04-23T07:05:18;100900.09;;;16.11;100.00
51299;BME280;37382;45.192;9.790;2023-04-23T07:07:46;100907.53;;;16.41;100.00
51299;BME280;37382;45.192;9.790;2023-04-23T07:10:14;100896.97;;;16.86;100.00
51299;BME280;37382;45.192;9.790;2023-04-23T07:12:44;100904.78;;;17.13;100.00
51299;BME280;37382;45.192;9.790;2023-04-23T07:15:12;100903.06;;;17.00;100.00
51299;BME280;37382;45.192;9.790;2023-04-23T07:17:39;100901.88;;;17.08;100.00
51299;BME280;37382;45.192;9.790;2023-04-23T07:20:07;100901.06;;;17.55;100.00
51299;BME280;37382;45.192;9.790;2023-04-23T07:22:35;100891.28;;;17.47;100.00
51299;BME280;37382;45.192;9.790;2023-04-23T07:25:02;100891.38;;;17.52;100.00
51299;BME280;37382;45.192;9.790;2023-04-23T07:27:31;100886.88;;;18.10;100.00
51299;BME280;37382;45.192;9.790;2023-04-23T07:29:59;100882.44;;;18.09;100.00
51299;BME280;37382;45.192;9.790;2023-04-23T07:32:28;100885.13;;;17.92;100.00
51299;BME280;37382;45.192;9.790;2023-04-23T07:34:56;100886.16;;;18.15;100.00
51299;BME280;37382;45.192;9.790;2023-04-23T07:37:24;100885.13;;;17.92;100.00
51299;BME280;37382;45.192;9.790;2023-04-23T07:39:51;100876.38;;;17.84;100.00
51299;BME280;37382;45.192;9.790;2023-04-23T07:42:20;100872.72;;;18.19;100.00
51299;BME280;37382;45.192;9.790;2023-04-23T07:44:48;100871.72;;;18.25;100.00
51299;BME280;37382;45.192;9.790;2023-04-23T07:47:15;100874.69;;;18.35;100.00
51299;BME280;37382;45.192;9.790;2023-04-23T07:49:43;100870.22;;;18.63;100.00
51299;BME280;37382;45.192;9.790;2023-04-23T07:52:11;100869.16;;;18.64;100.00
51299;BME280;37382;45.192;9.790;2023-04-23T07:54:38;100875.66;;;18.58;100.00
51299;BME280;37382;45.192;9.790;2023-04-23T07:57:06;100874.97;;;18.22;100.00
51299;BME280;37382;45.192;9.790;2023-04-23T07:59:33;100878.69;;;18.27;100.00
51299;BME280;37382;45.192;9.790;2023-04-23T08:02:00;100877.09;;;18.77;100.00
51299;BME280;37382;45.192;9.790;2023-04-23T08:04:28;100871.22;;;18.86;100.00
51299;BME280;37382;45.192;9.790;2023-04-23T08:06:56;100873.56;;;18.65;100.00
51299;BME280;37382;45.192;9.790;2023-04-23T08:09:24;100874.19;;;18.84;100.00
51299;BME280;37382;45.192;9.790;2023-04-23T08:11:52;100869.69;;;18.95;100.00
51299;BME280;37382;45.192;9.790;2023-04-23T08:14:21;100871.13;;;19.14;100.00
51299;BME280;37382;45.192;9.790;2023-04-23T08:16:49;100869.19;;;18.98;100.00
51299;BME280;37382;45.192;9.790;2023-04-23T08:19:16;100870.84;;;18.82;100.00
51299;BME280;37382;45.192;9.790;2023-04-23T08:21:44;100871.03;;;19.26;100.00
51299;BME280;37382;45.192;9.790;2023-04-23T08:24:11;100867.25;;;19.15;100.00
51299;BME280;37382;45.192;9.790;2023-04-23T08:26:39;100863.06;;;18.79;100.00
51299;BME280;37382;45.192;9.790;2023-04-23T08:29:06;100863.66;;;18.81;100.00
51299;BME280;37382;45.192;9.790;2023-04-23T08:31:38;100860.09;;;18.97;100.00
51299;BME280;37382;45.192;9.790;2023-04-23T08:34:05;100869.28;;;18.86;100.00
51299;BME280;37382;45.192;9.790;2023-04-23T08:36:33;100862.09;;;19.19;100.00
51299;BME280;37382;45.192;9.790;2023-04-23T08:39:01;100869.38;;;19.08;100.00
51299;BME280;37382;45.192;9.790;2023-04-23T08:41:35;100874.03;;;19.25;100.00
51299;BME280;37382;45.192;9.790;2023-04-23T08:44:19;100865.00;;;19.12;100.00
51299;BME280;37382;45.192;9.790;2023-04-23T08:46:48;100871.13;;;19.53;100.00
51299;BME280;37382;45.192;9.790;2023-04-23T08:49:16;100862.16;;;19.63;100.00
51299;BME280;37382;45.192;9.790;2023-04-23T08:51:52;100864.66;;;19.65;100.00
51299;BME280;37382;45.192;9.790;2023-04-23T08:54:31;100862.00;;;19.92;100.00
51299;BME280;37382;45.192;9.790;2023-04-23T08:57:01;100860.50;;;20.29;100.00
51299;BME280;37382;45.192;9.790;2023-04-23T08:59:30;100852.34;;;20.17;100.00
51299;BME280;37382;45.192;9.790;2023-04-23T09:02:00;100852.25;;;20.34;100.00
51299;BME280;37382;45.192;9.790;2023-04-23T09:04:34;100857.09;;;20.71;100.00
51299;BME280;37382;45.192;9.790;2023-04-23T09:07:02;100843.00;;;21.10;100.00
51299;BME280;37382;45.192;9.790;2023-04-23T09:09:32;100849.47;;;20.88;100.00
51299;BME280;37382;45.192;9.790;2023-04-23T09:11:59;100848.69;;;21.36;100.00
51299;BME280;37382;45.192;9.790;2023-04-23T09:14:27;100847.25;;;21.71;100.00
51299;BME280;37382;45.192;9.790;2023-04-23T09:16:55;100846.34;;;21.12;100.00
51299;BME280;37382;45.192;9.790;2023-04-23T09:19:24;100846.16;;;21.29;100.00
51299;BME280;37382;45.192;9.790;2023-04-23T09:21:54;100840.53;;;21.56;100.00
51299;BME280;37382;45.192;9.790;2023-04-23T09:24:22;100833.13;;;21.72;100.00
51299;BME280;37382;45.192;9.790;2023-04-23T09:26:51;100831.44;;;21.61;100.00
51299;BME280;37382;45.192;9.790;2023-04-23T09:29:21;100826.09;;;22.17;100.00
51299;BME280;37382;45.192;9.790;2023-04-23T09:31:51;100830.31;;;22.41;100.00
51299;BME280;37382;45.192;9.790;2023-04-23T09:34:22;100828.84;;;22.17;100.00
51299;BME280;37382;45.192;9.790;2023-04-23T09:36:51;100831.72;;;22.64;100.00
51299;BME280;37382;45.192;9.790;2023-04-23T09:39:22;100834.28;;;21.81;100.00
51299;BME280;37382;45.192;9.790;2023-04-23T09:41:51;100833.94;;;21.62;100.00
51299;BME280;37382;45.192;9.790;2023-04-23T09:44:23;100832.19;;;21.51;100.00
51299;BME280;37382;45.192;9.790;2023-04-23T09:46:50;100840.38;;;21.30;100.00
51299;BME280;37382;45.192;9.790;2023-04-23T09:49:18;100829.59;;;21.92;100.00
51299;BME280;37382;45.192;9.790;2023-04-23T09:51:48;100823.56;;;22.06;100.00
51299;BME280;37382;45.192;9.790;2023-04-23T09:54:20;100827.19;;;22.11;100.00
51299;BME280;37382;45.192;9.790;2023-04-23T09:56:50;100825.34;;;21.64;100.00
51299;BME280;37382;45.192;9.790;2023-04-23T09:59:21;100811.34;;;21.96;100.00
51299;BME280;37382;45.192;9.790;2023-04-23T10:02:09;100811.09;;;22.13;100.00
51299;BME280;37382;45.192;9.790;2023-04-23T10:04:38;100804.53;;;22.71;100.00
51299;BME280;37382;45.192;9.790;2023-04-23T10:07:06;100795.38;;;23.01;100.00
51299;BME280;37382;45.192;9.790;2023-04-23T10:09:46;100803.72;;;23.12;100.00
51299;BME280;37382;45.192;9.790;2023-04-23T10:12:14;100788.97;;;23.11;100.00
51299;BME280;37382;45.192;9.790;2023-04-23T10:15:03;100791.75;;;23.21;100.00
51299;BME280;37382;45.192;9.790;2023-04-23T10:17:34;100780.28;;;23.49;100.00
51299;BME280;37382;45.192;9.790;2023-04-23T10:20:03;100782.41;;;23.72;100.00
51299;BME280;37382;45.192;9.790;2023-04-23T10:22:32;100789.13;;;23.51;100.00
51299;BME280;37382;45.192;9.790;2023-04-23T10:25:04;100786.50;;;22.94;100.00
51299;BME280;37382;45.192;9.790;2023-04-23T10:27:38;100780.63;;;23.32;100.00
51299;BME280;37382;45.192;9.790;2023-04-23T10:30:21;100784.53;;;23.25;100.00
51299;BME280;37382;45.192;9.790;2023-04-23T10:32:49;100775.47;;;23.65;100.00
51299;BME280;37382;45.192;9.790;2023-04-23T10:35:17;100773.41;;;23.31;100.00
51299;BME280;37382;45.192;9.790;2023-04-23T10:37:46;100774.03;;;23.77;100.00
51299;BME280;37382;45.192;9.790;2023-04-23T10:40:29;100769.63;;;23.71;100.00
51299;BME280;37382;45.192;9.790;2023-04-23T10:42:59;100771.50;;;23.21;100.00
51299;BME280;37382;45.192;9.790;2023-04-23T10:45:29;100766.84;;;22.65;100.00
51299;BME280;37382;45.192;9.790;2023-04-23T10:47:57;100774.28;;;23.05;100.00
51299;BME280;37382;45.192;9.790;2023-04-23T10:50:26;100766.50;;;23.13;100.00
51299;BME280;37382;45.192;9.790;2023-04-23T10:52:55;100770.38;;;23.17;100.00
51299;BME280;37382;45.192;9.790;2023-04-23T10:55:29;100765.41;;;22.98;100.00
51299;BME280;37382;45.192;9.790;2023-04-23T10:58:03;100768.19;;;22.78;100.00
51299;BME280;37382;45.192;9.790;2023-04-23T11:03:36;100760.84;;;23.49;100.00
51299;BME280;37382;45.192;9.790;2023-04-23T11:06:18;100758.22;;;23.68;100.00
51299;BME280;37382;45.192;9.790;2023-04-23T11:08:53;100758.09;;;23.43;100.00
51299;BME280;37382;45.192;9.790;2023-04-23T11:11:39;100753.13;;;24.35;100.00
51299;BME280;37382;45.192;9.790;2023-04-23T11:14:11;100749.44;;;24.79;94.11
51299;BME280;37382;45.192;9.790;2023-04-23T11:16:42;100748.25;;;24.85;91.48
51299;BME280;37382;45.192;9.790;2023-04-23T11:19:10;100742.41;;;24.52;93.78
51299;BME280;37382;45.192;9.790;2023-04-23T11:22:00;100743.66;;;23.96;91.98
51299;BME280;37382;45.192;9.790;2023-04-23T11:24:33;100747.88;;;23.94;94.03
51299;BME280;37382;45.192;9.790;2023-04-23T11:27:05;100747.88;;;23.94;89.31
51299;BME280;37382;45.192;9.790;2023-04-23T11:29:33;100742.59;;;23.92;85.47
51299;BME280;37382;45.192;9.790;2023-04-23T11:32:00;100738.34;;;23.50;84.57
51299;BME280;37382;45.192;9.790;2023-04-23T11:34:31;100734.72;;;24.39;84.69
51299;BME280;37382;45.192;9.790;2023-04-23T11:37:01;100726.97;;;24.71;87.87
51299;BME280;37382;45.192;9.790;2023-04-23T11:39:28;100725.06;;;24.31;86.07
51299;BME280;37382;45.192;9.790;2023-04-23T11:41:56;100727.34;;;24.59;87.66
51299;BME280;37382;45.192;9.790;2023-04-23T11:44:30;100712.13;;;25.04;82.27
51299;BME280;37382;45.192;9.790;2023-04-23T11:47:00;100715.88;;;25.19;80.90
51299;BME280;37382;45.192;9.790;2023-04-23T11:49:28;100718.44;;;24.91;77.37
51299;BME280;37382;45.192;9.790;2023-04-23T11:51:58;100714.97;;;24.75;79.88
51299;BME280;37382;45.192;9.790;2023-04-23T11:54:27;100709.84;;;24.24;75.01
51299;BME280;37382;45.192;9.790;2023-04-23T11:56:56;100687.69;;;25.01;80.92
51299;BME280;37382;45.192;9.790;2023-04-23T11:59:25;100695.00;;;26.03;76.56
51299;BME280;37382;45.192;9.790;2023-04-23T12:01:55;100685.41;;;26.09;70.45
51299;BME280;37382;45.192;9.790;2023-04-23T12:04:29;100683.84;;;26.03;67.72
51299;BME280;37382;45.192;9.790;2023-04-23T12:06:58;100681.34;;;25.63;69.86
51299;BME280;37382;45.192;9.790;2023-04-23T12:09:27;100683.28;;;25.44;69.86
51299;BME280;37382;45.192;9.790;2023-04-23T12:11:56;100673.56;;;25.79;70.65
51299;BME280;37382;45.192;9.790;2023-04-23T12:14:29;100672.28;;;26.09;67.44
51299;BME280;37382;45.192;9.790;2023-04-23T12:16:57;100670.84;;;25.36;67.61
51299;BME280;37382;45.192;9.790;2023-04-23T12:19:34;100662.13;;;25.81;69.89
51299;BME280;37382;45.192;9.790;2023-04-23T12:22:03;100658.09;;;25.54;68.08
51299;BME280;37382;45.192;9.790;2023-04-23T12:24:45;100664.53;;;25.87;68.76
51299;BME280;37382;45.192;9.790;2023-04-23T12:27:14;100659.50;;;26.08;66.66
51299;BME280;37382;45.192;9.790;2023-04-23T12:29:44;100660.25;;;26.28;66.89
51299;BME280;37382;45.192;9.790;2023-04-23T12:32:14;100662.28;;;25.89;65.03
51299;BME280;37382;45.192;9.790;2023-04-23T12:34:52;100659.13;;;27.17;63.29
51299;BME280;37382;45.192;9.790;2023-04-23T12:37:24;100646.03;;;27.68;59.31
51299;BME280;37382;45.192;9.790;2023-04-23T12:39:53;100657.25;;;26.57;62.05
51299;BME280;37382;45.192;9.790;2023-04-23T12:42:23;100652.34;;;26.49;62.15
51299;BME280;37382;45.192;9.790;2023-04-23T12:44:51;100652.44;;;25.59;64.45
51299;BME280;37382;45.192;9.790;2023-04-23T12:47:22;100642.34;;;26.01;64.28
51299;BME280;37382;45.192;9.790;2023-04-23T12:49:50;100640.34;;;26.82;63.02
51299;BME280;37382;45.192;9.790;2023-04-23T12:52:20;100638.13;;;27.34;62.41
51299;BME280;37382;45.192;9.790;2023-04-23T12:54:48;100633.50;;;27.66;60.51
51299;BME280;37382;45.192;9.790;2023-04-23T12:57:18;100622.00;;;27.17;58.97
51299;BME280;37382;45.192;9.790;2023-04-23T12:59:49;100626.25;;;28.33;56.09
51299;BME280;37382;45.192;9.790;2023-04-23T13:02:17;100615.78;;;28.47;56.83
51299;BME280;37382;45.192;9.790;2023-04-23T13:04:45;100616.84;;;28.29;55.09
51299;BME280;37382;45.192;9.790;2023-04-23T13:07:12;100623.94;;;27.30;57.68
51299;BME280;37382;45.192;9.790;2023-04-23T13:09:39;100626.34;;;27.23;57.59
51299;BME280;37382;45.192;9.790;2023-04-23T13:12:08;100619.16;;;26.80;58.25
51299;BME280;37382;45.192;9.790;2023-04-23T13:14:35;100633.13;;;26.34;58.60
51299;BME280;37382;45.192;9.790;2023-04-23T13:17:03;100616.47;;;26.89;57.20
51299;BME280;37382;45.192;9.790;2023-04-23T13:19:31;100609.00;;;26.98;57.63
51299;BME280;37382;45.192;9.790;2023-04-23T13:22:02;100597.81;;;27.85;54.39
51299;BME280;37382;45.192;9.790;2023-04-23T13:24:30;100605.94;;;27.73;53.15
51299;BME280;37382;45.192;9.790;2023-04-23T13:26:58;100606.75;;;27.74;52.99
51299;BME280;37382;45.192;9.790;2023-04-23T13:29:26;100609.09;;;28.57;51.03
51299;BME280;37382;45.192;9.790;2023-04-23T13:31:54;100599.09;;;29.31;50.29
51299;BME280;37382;45.192;9.790;2023-04-23T13:34:22;100591.00;;;29.12;49.65
51299;BME280;37382;45.192;9.790;2023-04-23T13:36:50;100588.13;;;28.86;49.54
51299;BME280;37382;45.192;9.790;2023-04-23T13:39:18;100587.00;;;27.93;51.49
51299;BME280;37382;45.192;9.790;2023-04-23T13:41:46;100588.41;;;28.04;50.70
51299;BME280;37382;45.192;9.790;2023-04-23T13:44:32;100590.91;;;27.46;52.72
51299;BME280;37382;45.192;9.790;2023-04-23T13:47:00;100574.25;;;28.63;49.23
51299;BME280;37382;45.192;9.790;2023-04-23T13:49:27;100579.94;;;28.58;48.91
51299;BME280;37382;45.192;9.790;2023-04-23T13:51:55;100577.53;;;29.40;47.59
51299;BME280;37382;45.192;9.790;2023-04-23T13:54:30;100569.28;;;29.35;46.26
51299;BME280;37382;45.192;9.790;2023-04-23T13:56:58;100557.91;;;29.49;46.47
51299;BME280;37382;45.192;9.790;2023-04-23T13:59:25;100557.34;;;29.03;46.02
51299;BME280;37382;45.192;9.790;2023-04-23T14:01:53;100559.47;;;28.80;45.37
51299;BME280;37382;45.192;9.790;2023-04-23T14:04:20;100558.63;;;28.31;46.20
51299;BME280;37382;45.192;9.790;2023-04-23T14:06:50;100553.06;;;28.80;46.48
51299;BME280;37382;45.192;9.790;2023-04-23T14:09:17;100549.47;;;29.05;47.53
51299;BME280;37382;45.192;9.790;2023-04-23T14:11:45;100546.34;;;28.58;47.71
51299;BME280;37382;45.192;9.790;2023-04-23T14:14:13;100549.09;;;27.78;47.35
51299;BME280;37382;45.192;9.790;2023-04-23T14:16:40;100549.13;;;28.09;45.34
51299;BME280;37382;45.192;9.790;2023-04-23T14:19:08;100533.16;;;28.50;45.67
51299;BME280;37382;45.192;9.790;2023-04-23T14:21:35;100540.81;;;28.27;48.00
51299;BME280;37382;45.192;9.790;2023-04-23T14:24:39;100533.97;;;28.42;47.20
51299;BME280;37382;45.192;9.790;2023-04-23T14:27:10;100528.63;;;27.68;47.85
51299;BME280;37382;45.192;9.790;2023-04-23T14:32:07;100545.28;;;28.28;46.37
51299;BME280;37382;45.192;9.790;2023-04-23T14:34:34;100535.53;;;30.23;43.93
51299;BME280;37382;45.192;9.790;2023-04-23T14:37:02;100524.09;;;31.38;41.46
51299;BME280;37382;45.192;9.790;2023-04-23T14:39:30;100533.13;;;30.42;42.89
51299;BME280;37382;45.192;9.790;2023-04-23T14:41:59;100520.78;;;31.36;40.91
51299;BME280;37382;45.192;9.790;2023-04-23T14:44:27;100516.19;;;30.90;41.90
51299;BME280;37382;45.192;9.790;2023-04-23T14:46:55;100521.41;;;30.40;43.17
51299;BME280;37382;45.192;9.790;2023-04-23T14:49:23;100522.78;;;30.25;41.97
51299;BME280;37382;45.192;9.790;2023-04-23T14:51:52;100504.28;;;29.77;43.80
51299;BME280;37382;45.192;9.790;2023-04-23T14:54:23;100510.97;;;30.11;42.72
51299;BME280;37382;45.192;9.790;2023-04-23T14:56:51;100513.19;;;30.35;42.50
51299;BME280;37382;45.192;9.790;2023-04-23T14:59:20;100515.69;;;30.28;41.70
51299;BME280;37382;45.192;9.790;2023-04-23T15:01:47;100511.72;;;30.29;42.45
51299;BME280;37382;45.192;9.790;2023-04-23T15:04:15;100513.72;;;29.63;42.40
51299;BME280;37382;45.192;9.790;2023-04-23T15:06:43;100506.56;;;30.69;40.85
51299;BME280;37382;45.192;9.790;2023-04-23T15:09:10;100501.91;;;31.25;39.90
51299;BME280;37382;45.192;9.790;2023-04-23T15:11:39;100506.91;;;30.89;40.54
51299;BME280;37382;45.192;9.790;2023-04-23T15:14:19;100497.66;;;29.90;41.69
51299;BME280;37382;45.192;9.790;2023-04-23T15:16:50;100495.75;;;29.03;43.57
51299;BME280;37382;45.192;9.790;2023-04-23T15:19:18;100500.88;;;27.49;44.26
51299;BME280;37382;45.192;9.790;2023-04-23T15:21:46;100499.16;;;28.16;44.27
51299;BME280;37382;45.192;9.790;2023-04-23T15:24:15;100497.94;;;28.49;44.76
51299;BME280;37382;45.192;9.790;2023-04-23T15:26:43;100487.34;;;28.86;44.34
51299;BME280;37382;45.192;9.790;2023-04-23T15:29:12;100482.59;;;29.30;42.62
51299;BME280;37382;45.192;9.790;2023-04-23T15:31:40;100480.25;;;28.97;43.93
51299;BME280;37382;45.192;9.790;2023-04-23T15:34:08;100485.84;;;28.71;43.70
51299;BME280;37382;45.192;9.790;2023-04-23T15:36:38;100478.63;;;29.14;43.51
51299;BME280;37382;45.192;9.790;2023-04-23T15:39:06;100486.81;;;30.57;41.98
51299;BME280;37382;45.192;9.790;2023-04-23T15:41:34;100484.06;;;29.27;43.49
51299;BME280;37382;45.192;9.790;2023-04-23T15:44:10;100484.69;;;28.89;43.24
51299;BME280;37382;45.192;9.790;2023-04-23T15:46:38;100493.22;;;28.18;45.07
51299;BME280;37382;45.192;9.790;2023-04-23T15:49:06;100494.22;;;27.00;45.82
51299;BME280;37382;45.192;9.790;2023-04-23T15:51:34;100480.72;;;26.66;46.71
51299;BME280;37382;45.192;9.790;2023-04-23T15:54:03;100484.91;;;26.54;49.36
51299;BME280;37382;45.192;9.790;2023-04-23T15:56:35;100484.25;;;27.98;46.40
51299;BME280;37382;45.192;9.790;2023-04-23T15:59:03;100470.22;;;28.21;45.99
51299;BME280;37382;45.192;9.790;2023-04-23T16:01:31;100468.56;;;30.12;43.94
51299;BME280;37382;45.192;9.790;2023-04-23T16:03:58;100463.50;;;31.08;41.77
51299;BME280;37382;45.192;9.790;2023-04-23T16:06:36;100462.28;;;31.17;41.03
51299;BME280;37382;45.192;9.790;2023-04-23T16:09:04;100451.78;;;29.39;43.56
51299;BME280;37382;45.192;9.790;2023-04-23T16:11:36;100461.88;;;28.47;46.72
51299;BME280;37382;45.192;9.790;2023-04-23T16:14:05;100457.25;;;28.34;47.60
51299;BME280;37382;45.192;9.790;2023-04-23T16:16:33;100461.44;;;28.14;46.59
51299;BME280;37382;45.192;9.790;2023-04-23T16:19:01;100455.16;;;28.57;46.04
51299;BME280;37382;45.192;9.790;2023-04-23T16:21:29;100444.09;;;29.74;44.37
51299;BME280;37382;45.192;9.790;2023-04-23T16:23:58;100445.59;;;30.10;43.71
51299;BME280;37382;45.192;9.790;2023-04-23T16:26:26;100434.06;;;30.12;42.77
51299;BME280;37382;45.192;9.790;2023-04-23T16:28:54;100434.97;;;29.21;44.47
51299;BME280;37382;45.192;9.790;2023-04-23T16:31:42;100439.66;;;28.42;46.36
51299;BME280;37382;45.192;9.790;2023-04-23T16:34:09;100430.34;;;27.21;47.50
51299;BME280;37382;45.192;9.790;2023-04-23T16:36:37;100431.03;;;26.68;49.22
51299;BME280;37382;45.192;9.790;2023-04-23T16:39:04;100419.50;;;25.91;51.15
51299;BME280;37382;45.192;9.790;2023-04-23T16:41:32;100421.31;;;26.01;51.82
51299;BME280;37382;45.192;9.790;2023-04-23T16:44:00;100412.50;;;26.21;52.49
51299;BME280;37382;45.192;9.790;2023-04-23T16:46:27;100407.94;;;25.84;53.86
51299;BME280;37382;45.192;9.790;2023-04-23T16:48:57;100402.06;;;25.25;54.81
51299;BME280;37382;45.192;9.790;2023-04-23T16:51:25;100401.03;;;25.01;56.46
51299;BME280;37382;45.192;9.790;2023-04-23T16:53:53;100406.84;;;24.86;56.83
51299;BME280;37382;45.192;9.790;2023-04-23T16:56:21;100402.13;;;24.86;57.12
51299;BME280;37382;45.192;9.790;2023-04-23T16:58:49;100403.91;;;24.77;57.58
51299;BME280;37382;45.192;9.790;2023-04-23T17:01:16;100388.00;;;24.64;58.98
51299;BME280;37382;45.192;9.790;2023-04-23T17:03:44;100386.16;;;24.54;59.13
51299;BME280;37382;45.192;9.790;2023-04-23T17:06:25;100384.31;;;24.06;61.34